createdAt,value
2023-03-10T00:02:40.655Z,100.00
2023-03-10T00:06:08.426Z,100.00
2023-03-10T00:09:36.277Z,100.00
2023-03-10T00:13:03.941Z,100.00
2023-03-10T00:16:32.290Z,100.00
2023-03-10T00:20:00.635Z,100.00
2023-03-10T00:23:28.656Z,100.00
2023-03-10T00:26:40.631Z,100.00
2023-03-10T00:30:08.604Z,100.00
2023-03-10T00:33:37.059Z,100.00
2023-03-10T00:37:05.376Z,100.00
2023-03-10T00:40:17.970Z,100.00
2023-03-10T00:43:45.724Z,100.00
2023-03-10T00:47:13.936Z,100.00
2023-03-10T00:50:41.780Z,100.00
2023-03-10T00:53:50.788Z,100.00
2023-03-10T00:57:19.285Z,100.00
2023-03-10T01:00:46.909Z,100.00
2023-03-10T01:03:57.605Z,100.00
2023-03-10T01:07:06.703Z,100.00
2023-03-10T01:10:34.489Z,100.00
2023-03-10T01:14:02.603Z,100.00
2023-03-10T01:17:30.524Z,100.00
2023-03-10T01:20:58.154Z,100.00
2023-03-10T01:24:07.037Z,100.00
2023-03-10T01:27:34.863Z,100.00
2023-03-10T01:31:04.016Z,100.00
2023-03-10T01:34:31.717Z,100.00
2023-03-10T01:37:42.812Z,100.00
2023-03-10T01:41:09.054Z,100.00
2023-03-10T01:44:36.897Z,100.00
2023-03-10T01:48:04.929Z,100.00
2023-03-10T01:51:33.050Z,100.00
2023-03-10T01:55:01.087Z,100.00
2023-03-10T01:58:09.810Z,100.00
2023-03-10T02:01:37.543Z,100.00
2023-03-10T02:05:05.445Z,100.00
2023-03-10T02:08:33.270Z,100.00
2023-03-10T02:12:01.298Z,100.00
2023-03-10T02:15:29.299Z,100.00
2023-03-10T02:18:57.316Z,100.00
2023-03-10T02:22:25.144Z,100.00
2023-03-10T02:25:33.745Z,100.00
2023-03-10T02:29:02.071Z,100.00
2023-03-10T02:32:10.950Z,100.00
2023-03-10T02:35:19.364Z,100.00
2023-03-10T02:38:47.321Z,100.00
2023-03-10T02:42:15.037Z,100.00
2023-03-10T02:45:24.413Z,100.00
2023-03-10T02:48:33.308Z,100.00
2023-03-10T02:51:50.048Z,100.00
2023-03-10T02:55:18.014Z,100.00
2023-03-10T02:58:45.688Z,100.00
2023-03-10T03:01:54.763Z,100.00
2023-03-10T03:05:23.053Z,100.00
2023-03-10T03:08:50.782Z,100.00
2023-03-10T03:12:18.730Z,100.00
2023-03-10T03:15:46.470Z,100.00
2023-03-10T03:19:14.227Z,100.00
2023-03-10T03:22:41.967Z,100.00
2023-03-10T03:26:09.861Z,100.00
2023-03-10T03:29:38.050Z,100.00
2023-03-10T03:33:05.802Z,100.00
2023-03-10T03:36:33.986Z,100.00
2023-03-10T03:40:10.771Z,100.00
2023-03-10T03:43:39.222Z,100.00
2023-03-10T03:46:48.146Z,100.00
2023-03-10T03:49:56.909Z,100.00
2023-03-10T03:53:05.804Z,100.00
2023-03-10T03:55:59.737Z,100.00
2023-03-10T03:59:27.570Z,100.00
2023-03-10T04:02:18.229Z,100.00
2023-03-10T04:05:45.878Z,100.00
2023-03-10T04:08:54.595Z,100.00
2023-03-10T04:12:03.431Z,100.00
2023-03-10T04:15:13.031Z,100.00
2023-03-10T04:18:40.809Z,100.00
2023-03-10T04:22:08.658Z,100.00
2023-03-10T04:25:36.633Z,100.00
2023-03-10T04:29:04.674Z,100.00
2023-03-10T04:32:32.568Z,100.00
2023-03-10T04:35:44.722Z,100.00
2023-03-10T04:39:12.356Z,100.00
2023-03-10T04:42:40.096Z,100.00
2023-03-10T04:45:49.316Z,100.00
2023-03-10T04:49:17.087Z,100.00
2023-03-10T04:52:45.300Z,100.00
2023-03-10T04:55:54.512Z,100.00
2023-03-10T04:59:03.512Z,100.00
2023-03-10T05:02:31.222Z,100.00
2023-03-10T05:05:47.818Z,100.00
2023-03-10T05:08:57.942Z,100.00
2023-03-10T05:12:25.798Z,100.00
2023-03-10T05:15:53.479Z,100.00
2023-03-10T05:19:21.261Z,100.00
2023-03-10T05:22:11.635Z,100.00
2023-03-10T05:25:39.869Z,100.00
2023-03-10T05:29:07.884Z,100.00
2023-03-10T05:32:36.074Z,100.00
2023-03-10T05:35:45.149Z,100.00
2023-03-10T05:38:15.340Z,100.00
2023-03-10T05:41:43.035Z,100.00
2023-03-10T05:45:10.869Z,100.00
2023-03-10T05:48:38.635Z,100.00
2023-03-10T05:52:06.626Z,100.00
2023-03-10T05:55:34.418Z,100.00
2023-03-10T05:58:45.252Z,100.00
2023-03-10T06:02:13.024Z,100.00
2023-03-10T06:05:40.672Z,100.00
2023-03-10T06:09:08.553Z,100.00
2023-03-10T06:12:36.455Z,100.00
2023-03-10T06:16:04.665Z,100.00
2023-03-10T06:19:32.392Z,100.00
2023-03-10T06:23:00.759Z,100.00
2023-03-10T06:26:28.816Z,100.00
2023-03-10T06:29:37.506Z,100.00
2023-03-10T06:32:45.470Z,100.00
2023-03-10T06:35:36.161Z,100.00
2023-03-10T06:39:04.270Z,100.00
2023-03-10T06:42:32.387Z,100.00
2023-03-10T06:46:00.353Z,100.00
2023-03-10T06:49:28.334Z,100.00
2023-03-10T06:52:37.410Z,100.00
2023-03-10T06:56:06.246Z,100.00
2023-03-10T06:59:34.126Z,100.00
2023-03-10T07:03:02.441Z,100.00
2023-03-10T07:06:30.339Z,100.00
2023-03-10T07:09:19.828Z,100.00
2023-03-10T07:12:28.652Z,100.00
2023-03-10T07:15:56.398Z,100.00
2023-03-10T07:19:24.216Z,100.00
2023-03-10T07:22:51.996Z,100.00
2023-03-10T07:26:19.786Z,100.00
2023-03-10T07:29:47.613Z,100.00
2023-03-10T07:33:15.691Z,100.00
2023-03-10T07:36:24.576Z,100.00
2023-03-10T07:39:52.373Z,100.00
2023-03-10T07:43:20.417Z,100.00
2023-03-10T07:46:32.166Z,100.00
2023-03-10T07:49:39.686Z,100.00
2023-03-10T07:52:53.362Z,100.00
2023-03-10T07:56:03.873Z,100.00
2023-03-10T07:59:15.690Z,100.00
2023-03-10T08:02:44.018Z,100.00
2023-03-10T08:05:33.703Z,100.00
2023-03-10T08:09:01.761Z,100.00
2023-03-10T08:12:12.067Z,100.00
2023-03-10T08:15:29.398Z,100.00
2023-03-10T08:18:38.284Z,100.00
2023-03-10T08:22:06.202Z,100.00
2023-03-10T08:25:15.209Z,100.00
2023-03-10T08:28:43.026Z,100.00
2023-03-10T08:31:53.021Z,100.00
2023-03-10T08:35:02.022Z,100.00
2023-03-10T08:38:11.750Z,100.00
2023-03-10T08:41:28.580Z,100.00
2023-03-10T08:44:13.300Z,100.00
2023-03-10T08:46:52.384Z,100.00
2023-03-10T08:50:20.441Z,100.00
2023-03-10T08:53:49.728Z,100.00
2023-03-10T08:56:59.777Z,100.00
2023-03-10T09:00:07.602Z,100.00
2023-03-10T09:03:35.521Z,100.00
2023-03-10T09:06:44.533Z,99.86
2023-03-10T09:09:33.318Z,99.23
2023-03-10T09:13:12.718Z,93.67
2023-03-10T09:15:43.069Z,92.62
2023-03-10T09:18:51.802Z,90.53
2023-03-10T09:22:03.682Z,90.27
2023-03-10T09:25:31.519Z,88.74
2023-03-10T09:28:28.231Z,89.13
2023-03-10T09:31:57.427Z,87.55
2023-03-10T09:34:54.283Z,83.90
2023-03-10T09:37:50.686Z,84.09
2023-03-10T09:40:59.487Z,85.82
2023-03-10T09:44:09.652Z,85.63
2023-03-10T09:46:46.561Z,85.58
2023-03-10T09:49:56.762Z,85.47
2023-03-10T09:53:06.334Z,85.57
2023-03-10T09:55:57.576Z,83.77
2023-03-10T09:59:25.649Z,85.29
2023-03-10T10:02:33.918Z,83.45
2023-03-10T10:05:49.849Z,83.13
2023-03-10T10:09:17.629Z,81.79
2023-03-10T10:12:29.563Z,80.27
2023-03-10T10:16:18.251Z,79.56
2023-03-10T10:19:25.077Z,78.31
2023-03-10T10:22:53.311Z,77.28
2023-03-10T10:26:20.987Z,77.09
2023-03-10T10:29:48.926Z,77.94
2023-03-10T10:33:16.816Z,79.01
2023-03-10T10:36:33.269Z,79.13
2023-03-10T10:39:42.239Z,77.73
2023-03-10T10:42:53.078Z,77.84
2023-03-10T10:46:20.935Z,77.49
2023-03-10T10:49:48.784Z,77.13
2023-03-10T10:52:57.394Z,78.17
2023-03-10T10:56:06.168Z,78.10
2023-03-10T10:59:34.027Z,77.30
2023-03-10T11:02:42.692Z,78.20
2023-03-10T11:06:10.538Z,77.89
2023-03-10T11:09:38.196Z,78.50
2023-03-10T11:13:05.908Z,78.33
2023-03-10T11:15:55.516Z,78.37
2023-03-10T11:19:04.586Z,78.37
2023-03-10T11:22:32.358Z,79.40
2023-03-10T11:26:00.156Z,79.30
2023-03-10T11:29:28.187Z,79.82
2023-03-10T11:32:56.152Z,79.31
2023-03-10T11:36:23.864Z,79.16
2023-03-10T11:39:51.832Z,79.37
2023-03-10T11:43:19.604Z,80.56
2023-03-10T11:46:47.837Z,80.88
2023-03-10T11:50:15.705Z,80.97
2023-03-10T11:53:44.443Z,81.15
2023-03-10T11:57:13.014Z,81.41
2023-03-10T12:00:22.096Z,80.89
2023-03-10T12:03:50.260Z,80.87
2023-03-10T12:06:39.254Z,82.57
2023-03-10T12:10:08.596Z,83.48
2023-03-10T12:13:16.863Z,84.57
2023-03-10T12:16:44.706Z,84.70
2023-03-10T12:20:12.866Z,85.29
2023-03-10T12:23:11.386Z,86.07
2023-03-10T12:26:19.734Z,86.74
2023-03-10T12:29:28.634Z,88.03
2023-03-10T12:32:56.540Z,88.63
2023-03-10T12:36:27.571Z,88.71
2023-03-10T12:39:55.327Z,89.06
2023-03-10T12:42:45.827Z,88.91
2023-03-10T12:46:15.178Z,89.00
2023-03-10T12:49:05.595Z,89.21
2023-03-10T12:52:31.862Z,90.47
2023-03-10T12:55:41.084Z,91.00
2023-03-10T12:59:06.505Z,92.48
2023-03-10T13:02:15.379Z,94.07
2023-03-10T13:09:10.567Z,98.24
2023-03-10T13:15:42.637Z,100.00
2023-03-10T13:19:10.648Z,100.00
2023-03-10T13:22:39.109Z,100.00
2023-03-10T13:29:35.645Z,100.00
2023-03-10T13:33:03.392Z,100.00
2023-03-10T13:36:31.338Z,100.00
2023-03-10T13:39:55.835Z,100.00
2023-03-10T13:43:24.056Z,100.00
2023-03-10T13:46:48.337Z,100.00
2023-03-10T13:49:53.090Z,100.00
2023-03-10T13:53:20.699Z,99.99
2023-03-10T13:56:29.896Z,99.92
2023-03-10T13:59:54.253Z,100.00
2023-03-10T14:03:10.809Z,100.00
2023-03-10T14:06:39.017Z,100.00
2023-03-10T14:09:27.879Z,100.00
2023-03-10T14:12:55.912Z,100.00
2023-03-10T14:16:32.279Z,100.00
2023-03-10T14:20:00.452Z,100.00
2023-03-10T14:23:28.601Z,100.00
2023-03-10T14:26:24.607Z,100.00
2023-03-10T14:29:52.399Z,100.00
2023-03-10T14:33:00.867Z,100.00
2023-03-10T14:36:28.612Z,100.00
2023-03-10T14:39:56.537Z,100.00
2023-03-10T14:43:24.400Z,100.00
2023-03-10T14:46:52.979Z,100.00
2023-03-10T14:50:20.336Z,100.00
2023-03-10T14:53:48.205Z,100.00
2023-03-10T14:56:37.621Z,100.00
2023-03-10T14:59:45.539Z,100.00
2023-03-10T15:03:13.426Z,100.00
2023-03-10T15:06:41.238Z,100.00
2023-03-10T15:09:54.571Z,100.00
2023-03-10T15:13:18.698Z,100.00
2023-03-10T15:16:46.459Z,100.00
2023-03-10T15:20:14.260Z,100.00
2023-03-10T15:23:23.197Z,100.00
2023-03-10T15:26:50.954Z,100.00
2023-03-10T15:29:59.743Z,100.00
2023-03-10T15:33:27.538Z,100.00
2023-03-10T15:36:55.500Z,100.00
2023-03-10T15:40:23.440Z,100.00
2023-03-10T15:43:51.261Z,100.00
2023-03-10T15:47:18.981Z,100.00
2023-03-10T15:50:47.471Z,100.00
2023-03-10T15:54:16.105Z,100.00
2023-03-10T15:57:24.506Z,100.00
2023-03-10T16:00:33.319Z,100.00
2023-03-10T16:04:01.161Z,100.00
2023-03-10T16:07:29.254Z,100.00
2023-03-10T16:10:36.885Z,100.00
2023-03-10T16:14:04.561Z,100.00
2023-03-10T16:17:32.417Z,100.00
2023-03-10T16:21:00.129Z,100.00
2023-03-10T16:24:09.980Z,100.00
2023-03-10T16:27:38.868Z,100.00
2023-03-10T16:31:06.884Z,100.00
2023-03-10T16:34:14.647Z,100.00
2023-03-10T16:37:42.358Z,100.00
2023-03-10T16:41:10.189Z,100.00
2023-03-10T16:44:38.176Z,100.00
2023-03-10T16:48:06.348Z,100.00
2023-03-10T16:51:34.064Z,100.00
2023-03-10T16:55:02.052Z,100.00
2023-03-10T16:58:29.987Z,100.00
2023-03-10T17:01:58.327Z,100.00
2023-03-10T17:05:22.832Z,100.00
2023-03-10T17:08:11.854Z,100.00
2023-03-10T17:11:39.632Z,100.00
2023-03-10T17:15:07.723Z,100.00
2023-03-10T17:22:31.093Z,100.00
2023-03-10T17:25:59.322Z,100.00
2023-03-10T17:29:27.264Z,100.00
2023-03-10T17:32:55.268Z,100.00
2023-03-10T17:36:23.749Z,100.00
2023-03-10T17:39:40.017Z,100.00
2023-03-10T17:43:29.604Z,100.00
2023-03-10T17:46:36.600Z,100.00
2023-03-10T17:53:38.168Z,100.00
2023-03-10T17:56:46.918Z,100.00
2023-03-10T17:59:55.827Z,100.00
2023-03-10T18:03:23.709Z,100.00
2023-03-10T18:06:51.505Z,100.00
2023-03-10T18:10:19.491Z,100.00
2023-03-10T18:13:29.450Z,100.00
2023-03-10T18:16:57.209Z,100.00
2023-03-10T18:20:25.315Z,100.00
2023-03-10T18:23:53.079Z,100.00
2023-03-10T18:27:20.747Z,100.00
2023-03-10T18:30:48.551Z,100.00
2023-03-10T18:34:16.599Z,100.00
2023-03-10T18:37:45.014Z,100.00
2023-03-10T18:41:13.344Z,100.00
2023-03-10T18:44:25.640Z,100.00
2023-03-10T18:47:53.748Z,100.00
2023-03-10T18:51:21.594Z,100.00
2023-03-10T18:54:49.401Z,100.00
2023-03-10T18:57:59.315Z,100.00
2023-03-10T19:01:16.821Z,100.00
2023-03-10T19:04:44.939Z,100.00
2023-03-10T19:08:12.817Z,100.00
2023-03-10T19:11:40.727Z,100.00
2023-03-10T19:15:08.543Z,100.00
2023-03-10T19:18:33.125Z,100.00
2023-03-10T19:22:04.157Z,100.00
2023-03-10T19:25:32.270Z,100.00
2023-03-10T19:29:00.345Z,100.00
2023-03-10T19:32:28.304Z,100.00
2023-03-10T19:35:38.609Z,100.00
2023-03-10T19:38:47.625Z,100.00
2023-03-10T19:42:15.503Z,100.00
2023-03-10T19:45:43.454Z,100.00
2023-03-10T19:49:11.442Z,100.00
2023-03-10T19:52:39.717Z,100.00
2023-03-10T19:56:07.805Z,100.00
2023-03-10T19:59:31.242Z,100.00
2023-03-10T20:02:59.303Z,100.00
2023-03-10T20:06:10.060Z,100.00
2023-03-10T20:09:37.146Z,100.00
2023-03-10T20:12:26.801Z,100.00
2023-03-10T20:15:54.771Z,100.00
2023-03-10T20:19:22.734Z,100.00
2023-03-10T20:22:15.774Z,100.00
2023-03-10T20:25:43.523Z,100.00
2023-03-10T20:29:11.296Z,100.00
2023-03-10T20:32:39.500Z,100.00
2023-03-10T20:35:28.407Z,100.00
2023-03-10T20:38:56.564Z,100.00
2023-03-10T20:42:22.503Z,100.00
2023-03-10T20:45:50.369Z,100.00
2023-03-10T20:49:18.310Z,100.00
2023-03-10T20:52:46.240Z,100.00
2023-03-10T20:56:15.564Z,100.00
2023-03-10T20:59:22.249Z,100.00
2023-03-10T21:09:53.657Z,100.00
2023-03-10T21:13:01.624Z,100.00
2023-03-10T21:19:58.432Z,100.00
2023-03-10T21:23:26.104Z,100.00
2023-03-10T21:26:54.179Z,100.00
2023-03-10T21:30:22.134Z,100.00
2023-03-10T21:37:19.550Z,100.00
2023-03-10T21:40:48.958Z,100.00
2023-03-10T21:47:42.520Z,100.00
2023-03-10T21:54:50.477Z,100.00
2023-03-10T21:58:18.758Z,100.00
2023-03-10T22:01:46.610Z,100.00
2023-03-10T22:05:14.906Z,100.00
2023-03-10T22:08:42.597Z,100.00
2023-03-10T22:12:11.294Z,100.00
2023-03-10T22:15:40.881Z,100.00
2023-03-10T22:18:44.537Z,100.00
2023-03-10T22:22:12.552Z,100.00
2023-03-10T22:25:41.088Z,100.00
2023-03-10T22:29:09.077Z,100.00
2023-03-10T22:32:36.964Z,100.00
2023-03-10T22:36:04.935Z,100.00
2023-03-10T22:39:32.558Z,100.00
2023-03-10T22:43:00.315Z,100.00
2023-03-10T22:46:28.192Z,100.00
2023-03-10T22:49:56.088Z,100.00
2023-03-10T22:53:24.183Z,100.00
2023-03-10T22:56:40.882Z,100.00
2023-03-10T23:00:08.942Z,100.00
2023-03-10T23:03:19.184Z,100.00
2023-03-10T23:06:47.453Z,100.00
2023-03-10T23:10:15.266Z,100.00
2023-03-10T23:13:43.360Z,100.00
2023-03-10T23:17:11.208Z,100.00
2023-03-10T23:20:39.409Z,100.00
2023-03-10T23:24:08.482Z,100.00
2023-03-10T23:27:36.181Z,100.00
2023-03-10T23:30:45.500Z,100.00
2023-03-10T23:34:13.954Z,100.00
2023-03-10T23:37:41.891Z,100.00
2023-03-10T23:41:09.917Z,100.00
2023-03-10T23:44:37.694Z,100.00
2023-03-10T23:47:46.309Z,100.00
2023-03-10T23:51:14.704Z,100.00
2023-03-10T23:54:42.555Z,100.00
2023-03-10T23:58:10.794Z,100.00
